Terminal Aerodrome Forecast
Issued by NWS

Home | Current Version | Previous Version | Graphics & Text | Print | Product List | Glossary On
Versions: 1 2 3 4 5 6 7 8 9 10 11 12 13 14 15 16
222
FTUS45 KGGW 252215 AAA
TAFSDY
TAF AMD
KSDY 252215Z 2522/2618 VRB05KT 6SM -RASN OVC025
     FM260000 04006KT 5SM -RA OVC025
     FM260600 03005KT 4SM -SN OVC020
     FM261200 35005KT P6SM VCSH OVC010
      AMD LTD TO CLD VIS AND WIND=

USA.gov is the U.S. government's official web portal to all federal, state and local government web resources and services.